This is the latest recevied weather packets stored in our database for station/object BMCB-35. If no packets are shown the sender has not sent any weather packets the latest 10 day(s).
| Time | Temp. | Humidity | Pressure | Rain* | Wind** | Luminosity | Snow |
|---|---|---|---|---|---|---|---|
| 1777583439 | 10.56° C | 39% | 1025.3 hPa | 0 mm | - | 0 W/m² | - |
| 1777582244 | 10.56° C | 38% | 1025.3 hPa | 0 mm | - | 0 W/m² | - |
| 1777580440 | 11.67° C | 36% | 1025 hPa | 0 mm | - | 0 W/m² | - |
| 1777578613 | 12.22° C | 34% | 1024.7 hPa | 0 mm | - | 0 W/m² | - |
| 1777575040 | 15.56° C | 28% | 1023.8 hPa | 0 mm | - | 3 W/m² | - |
| 1777573807 | 16.11° C | 24% | 1023.5 hPa | 0 mm | - | 16 W/m² | - |
| 1777571405 | 17.22° C | 22% | 1023.2 hPa | 0 mm | - | 64 W/m² | - |
| 1777571405 | 17.78° C | 21% | 1023.1 hPa | 0 mm | - | 84 W/m² | - |
| 1777570243 | 17.78° C | 21% | 1023.1 hPa | 0 mm | - | 94 W/m² | - |
| 1777569624 | 17.78° C | 20% | 1023.1 hPa | 0 mm | - | 174 W/m² | - |
| 1777568442 | 18.33° C | 19% | 1023 hPa | 0 mm | - | 228 W/m² | - |
| 1777566044 | 18.89° C | 19% | 1022.9 hPa | 0 mm | - | 341 W/m² | - |
| 1777563614 | 18.89° C | 21% | 1022.9 hPa | 0 mm | - | 446 W/m² | - |
| 1777561809 | 18.89° C | 22% | 1023.1 hPa | 0 mm | - | 522 W/m² | - |
| 1777558209 | 18.33° C | 23% | 1023.5 hPa | 0 mm | - | 650 W/m² | - |
| 1777555810 | 17.78° C | 23% | 1023.8 hPa | 0 mm | - | 701 W/m² | - |
| 1777551037 | 17.78° C | 25% | 1024.1 hPa | 0 mm | - | 778 W/m² | - |
| 1777551029 | 17.22° C | 26% | 1024.1 hPa | 0 mm | - | 781 W/m² | - |
| 1777548603 | 16.11° C | 27% | 1024.9 hPa | 0 mm | - | 781 W/m² | - |
| 1777547440 | 16.11° C | 28% | 1025 hPa | 0 mm | - | 778 W/m² | - |
| 1777543837 | 14.44° C | 29% | 1025.5 hPa | 0 mm | - | 727 W/m² | - |
| 1777542635 | 13.89° C | 30% | 1025.6 hPa | 0 mm | - | 698 W/m² | - |
| 1777540805 | 13.33° C | 32% | 1025.7 hPa | 0 mm | - | 664 W/m² | - |
| 1777540804 | 13.33° C | 33% | 1025.7 hPa | 0 mm | - | 648 W/m² | - |
| 1777539605 | 12.78° C | 34% | 1025.7 hPa | 0 mm | - | 630 W/m² | - |
* Rain latest hour (hover to see other rain measurements)
** Current wind speed in m/s (hover to see current wind gust speed)